Time;durP1;ratioP1;P1;durP2;ratioP2;P2;SDS_P1;SDS_P2;PMS_P1;PMS_P2;Temp;Humidity;BMP_temperature;BMP_pressure;BME280_temperature;BME280_humidity;BME280_pressure;Samples;Min_cycle;Max_cycle;Signal;HPM_P1;HPM_P2
2022/02/04 00:09:09;;;;;;;13.13;4.82;;;;;;;;;;6211193;28;20132;-63
2022/02/04 00:22:37;;;;;;;8.60;3.67;;;;;;;;;;6214843;28;20046;-64
2022/02/04 00:25:52;;;;;;;8.50;3.88;;;;;;;;;;6220320;28;20064;-64
2022/02/04 00:29:02;;;;;;;14.05;5.70;;;;;;;;;;6219592;28;20533;-64
2022/02/04 00:32:08;;;;;;;74.43;35.20;;;;;;;;;;6218218;28;20049;-64
2022/02/04 00:35:19;;;;;;;93.53;41.40;;;;;;;;;;6217177;28;20502;-64
2022/02/04 00:38:28;;;;;;;36.47;17.90;;;;;;;;;;6220756;28;20517;-63
2022/02/04 00:41:34;;;;;;;27.70;12.13;;;;;;;;;;6209786;28;20054;-64
2022/02/04 00:44:38;;;;;;;47.22;20.35;;;;;;;;;;6228529;28;20521;-64
2022/02/04 00:47:47;;;;;;;61.35;24.30;;;;;;;;;;6234863;28;20555;-63
2022/02/04 00:50:56;;;;;;;47.72;18.58;;;;;;;;;;6221588;28;20054;-64
2022/02/04 00:54:11;;;;;;;13.88;4.50;;;;;;;;;;6226850;28;20058;-63
2022/02/04 00:57:19;;;;;;;14.07;4.28;;;;;;;;;;6229873;28;20219;-64
2022/02/04 01:25:51;;;;;;;11.80;4.32;;;;;;;;;;6221934;28;20045;-64
2022/02/04 01:26:58;;;;;;;12.48;4.28;;;;;;;;;;6221542;28;20054;-66
2022/02/04 01:30:03;;;;;;;15.15;4.25;;;;;;;;;;6224222;28;20046;-64
2022/02/04 01:33:05;;;;;;;16.70;4.30;;;;;;;;;;6221792;28;20053;-64
2022/02/04 01:36:08;;;;;;;9.35;4.45;;;;;;;;;;6218189;28;20478;-63
2022/02/04 01:39:10;;;;;;;10.82;4.32;;;;;;;;;;6228448;28;21179;-63
2022/02/04 01:42:12;;;;;;;14.88;4.53;;;;;;;;;;6218745;28;20636;-64
2022/02/04 01:45:13;;;;;;;14.45;4.90;;;;;;;;;;6225312;28;20161;-64
2022/02/04 01:48:15;;;;;;;13.23;4.90;;;;;;;;;;6222573;28;20058;-63
2022/02/04 01:51:18;;;;;;;11.82;4.97;;;;;;;;;;6223040;28;20534;-64
2022/02/04 01:54:20;;;;;;;11.02;5.10;;;;;;;;;;6224289;28;20129;-63
2022/02/04 01:57:21;;;;;;;11.38;4.63;;;;;;;;;;6215942;28;20184;-64
2022/02/04 02:00:23;;;;;;;13.95;5.10;;;;;;;;;;6229274;28;20097;-63
2022/02/04 02:03:26;;;;;;;10.18;5.40;;;;;;;;;;6214891;28;20616;-64
2022/02/04 02:06:44;;;;;;;15.23;5.15;;;;;;;;;;6222070;28;20137;-63
2022/02/04 02:09:55;;;;;;;11.55;5.30;;;;;;;;;;6228276;28;20052;-64
2022/02/04 02:13:06;;;;;;;10.93;4.30;;;;;;;;;;6214786;28;20053;-64
2022/02/04 02:16:21;;;;;;;9.23;4.45;;;;;;;;;;6222259;28;20053;-64
2022/02/04 02:33:23;;;;;;;12.95;6.13;;;;;;;;;;6220564;28;20503;-65
2022/02/04 02:47:14;;;;;;;11.07;5.90;;;;;;;;;;6144405;28;20212;-63
2022/02/04 02:50:40;;;;;;;15.07;6.25;;;;;;;;;;6225522;28;20109;-64
2022/02/04 02:53:54;;;;;;;11.10;6.35;;;;;;;;;;6221238;28;20053;-64
2022/02/04 03:00:41;;;;;;;16.08;7.35;;;;;;;;;;6149162;28;20591;-63
2022/02/04 03:03:47;;;;;;;16.33;7.38;;;;;;;;;;6224701;28;20064;-63
2022/02/04 03:06:49;;;;;;;12.82;6.75;;;;;;;;;;6222158;28;20050;-64
2022/02/04 03:09:51;;;;;;;17.52;7.80;;;;;;;;;;6225183;28;20129;-63
2022/02/04 03:12:54;;;;;;;13.52;7.35;;;;;;;;;;6224468;28;20077;-63
2022/02/04 03:16:00;;;;;;;16.73;8.23;;;;;;;;;;6223502;28;20053;-63
2022/02/04 03:19:04;;;;;;;17.17;8.30;;;;;;;;;;6225197;28;20054;-64
2022/02/04 03:22:10;;;;;;;17.13;8.73;;;;;;;;;;6220272;28;20046;-64
2022/02/04 03:25:13;;;;;;;16.55;8.40;;;;;;;;;;6222936;28;20049;-65
2022/02/04 03:28:22;;;;;;;15.82;7.15;;;;;;;;;;6223554;28;20057;-64
2022/02/04 03:31:26;;;;;;;12.93;7.05;;;;;;;;;;6218817;28;20056;-64
2022/02/04 03:34:27;;;;;;;12.48;7.63;;;;;;;;;;6221885;28;20054;-63
2022/02/04 03:37:29;;;;;;;15.48;8.07;;;;;;;;;;6223381;28;20115;-63
2022/02/04 03:40:31;;;;;;;14.45;7.53;;;;;;;;;;6217930;28;20064;-63
2022/02/04 03:43:34;;;;;;;13.73;6.20;;;;;;;;;;6221979;28;20129;-64
2022/02/04 03:46:36;;;;;;;15.65;6.03;;;;;;;;;;6217914;28;20133;-64
2022/02/04 03:49:37;;;;;;;12.10;6.28;;;;;;;;;;6224084;28;20125;-63
2022/02/04 03:52:39;;;;;;;11.43;5.88;;;;;;;;;;6222612;28;20078;-63
2022/02/04 03:55:42;;;;;;;16.58;6.72;;;;;;;;;;6222625;28;20120;-63
2022/02/04 03:58:45;;;;;;;11.80;6.20;;;;;;;;;;6223294;28;20053;-63
2022/02/04 04:01:47;;;;;;;12.48;6.35;;;;;;;;;;6222228;28;20218;-63
2022/02/04 04:04:48;;;;;;;16.17;6.35;;;;;;;;;;6222483;28;20140;-65
2022/02/04 04:07:50;;;;;;;11.70;5.65;;;;;;;;;;6221272;28;20075;-63
2022/02/04 04:10:53;;;;;;;18.38;6.45;;;;;;;;;;6220383;28;20097;-63
2022/02/04 04:13:55;;;;;;;13.40;6.30;;;;;;;;;;6221896;28;20050;-63
2022/02/04 04:16:57;;;;;;;15.27;6.30;;;;;;;;;;6214525;28;20498;-63
2022/02/04 04:19:59;;;;;;;15.52;5.95;;;;;;;;;;6221067;28;20074;-63
2022/02/04 04:23:00;;;;;;;17.27;6.97;;;;;;;;;;6222238;28;20128;-63
2022/02/04 04:26:02;;;;;;;9.52;7.03;;;;;;;;;;6223191;28;20100;-64
2022/02/04 04:29:06;;;;;;;12.15;7.00;;;;;;;;;;6220557;28;20140;-63
2022/02/04 04:32:08;;;;;;;12.68;5.68;;;;;;;;;;6234005;28;20056;-63
2022/02/04 04:35:11;;;;;;;13.23;6.35;;;;;;;;;;6222941;28;20057;-63
2022/02/04 04:38:23;;;;;;;10.63;6.30;;;;;;;;;;6221521;28;20050;-63
2022/02/04 04:41:28;;;;;;;11.77;6.30;;;;;;;;;;6222185;28;20042;-63
2022/02/04 05:28:26;;;;;;;18.10;8.40;;;;;;;;;;6272417;28;20132;-64
2022/02/04 05:31:28;;;;;;;16.45;8.23;;;;;;;;;;6271013;28;20515;-64
2022/02/04 05:34:30;;;;;;;19.58;7.28;;;;;;;;;;6267942;28;20144;-64
2022/02/04 05:37:34;;;;;;;16.00;7.75;;;;;;;;;;6268873;28;20057;-64
2022/02/04 05:40:41;;;;;;;13.50;8.02;;;;;;;;;;6274094;28;20049;-64
2022/02/04 05:43:44;;;;;;;14.63;7.00;;;;;;;;;;6272698;28;20386;-64
2022/02/04 05:46:51;;;;;;;15.60;7.85;;;;;;;;;;6273919;28;20053;-64
2022/02/04 05:50:07;;;;;;;16.48;7.63;;;;;;;;;;6265863;28;20053;-65
2022/02/04 05:53:17;;;;;;;14.75;8.35;;;;;;;;;;6292736;28;20056;-63
2022/02/04 05:56:28;;;;;;;20.85;8.07;;;;;;;;;;6295280;28;20432;-64
2022/02/04 05:59:45;;;;;;;15.27;7.85;;;;;;;;;;6282811;28;20078;-64
2022/02/04 06:02:56;;;;;;;15.88;7.68;;;;;;;;;;6278913;28;20056;-63
2022/02/04 06:06:16;;;;;;;15.60;8.05;;;;;;;;;;6276407;28;20045;-64
2022/02/04 06:22:30;;;;;;;15.40;6.70;;;;;;;;;;6282463;28;20048;-64
2022/02/04 06:25:34;;;;;;;18.52;7.30;;;;;;;;;;6265667;28;20045;-64
2022/02/04 06:28:38;;;;;;;14.82;7.38;;;;;;;;;;6279386;28;20512;-64
2022/02/04 06:31:40;;;;;;;14.32;6.70;;;;;;;;;;6282233;28;20053;-64
2022/02/04 06:34:41;;;;;;;14.48;6.25;;;;;;;;;;6284594;28;20219;-63
2022/02/04 06:37:43;;;;;;;15.43;7.03;;;;;;;;;;6282043;28;20508;-64
2022/02/04 06:40:46;;;;;;;13.48;6.65;;;;;;;;;;6284226;28;20407;-64
2022/02/04 06:43:47;;;;;;;12.55;6.38;;;;;;;;;;6284282;28;20071;-64
2022/02/04 06:46:49;;;;;;;16.15;6.72;;;;;;;;;;6281844;28;20135;-65
2022/02/04 06:49:51;;;;;;;13.88;6.80;;;;;;;;;;6274891;28;20453;-64
2022/02/04 06:52:53;;;;;;;15.55;6.88;;;;;;;;;;6279234;28;20053;-64
2022/02/04 06:55:56;;;;;;;14.70;7.22;;;;;;;;;;6275785;28;20045;-64
2022/02/04 06:58:58;;;;;;;18.00;6.05;;;;;;;;;;6282172;28;20044;-65
2022/02/04 07:01:59;;;;;;;14.90;5.82;;;;;;;;;;6286741;28;20087;-64
2022/02/04 07:05:08;;;;;;;14.95;5.88;;;;;;;;;;6275933;28;20075;-64
2022/02/04 07:08:16;;;;;;;13.15;5.72;;;;;;;;;;6278897;28;20041;-64
2022/02/04 07:11:47;;;;;;;14.23;4.97;;;;;;;;;;6275920;28;20053;-64
2022/02/04 07:21:22;;;;;;;14.20;6.22;;;;;;;;;;6281886;28;20115;-66
2022/02/04 07:24:24;;;;;;;13.52;5.25;;;;;;;;;;6285833;28;20519;-65
2022/02/04 07:27:27;;;;;;;16.65;6.35;;;;;;;;;;6284725;28;20055;-65
2022/02/04 07:30:29;;;;;;;11.82;5.55;;;;;;;;;;6284431;28;20488;-66
2022/02/04 07:33:44;;;;;;;10.60;5.30;;;;;;;;;;6282927;28;20049;-65
2022/02/04 07:43:27;;;;;;;13.10;6.03;;;;;;;;;;6282516;28;20052;-65
2022/02/04 07:46:30;;;;;;;15.02;6.30;;;;;;;;;;6284064;28;20080;-65
2022/02/04 07:49:31;;;;;;;13.02;4.65;;;;;;;;;;6283386;28;20063;-64
2022/02/04 07:52:33;;;;;;;10.98;4.75;;;;;;;;;;6283979;28;20496;-65
2022/02/04 07:55:35;;;;;;;13.93;4.40;;;;;;;;;;6287317;28;20072;-63
2022/02/04 07:58:38;;;;;;;9.35;4.00;;;;;;;;;;6285697;28;20128;-63
2022/02/04 08:01:39;;;;;;;11.52;4.35;;;;;;;;;;6289574;28;20146;-63
2022/02/04 08:04:43;;;;;;;11.45;4.65;;;;;;;;;;6282602;28;20472;-63
2022/02/04 08:07:52;;;;;;;11.70;3.90;;;;;;;;;;6282211;28;20053;-62
2022/02/04 08:11:10;;;;;;;13.13;3.83;;;;;;;;;;6284728;28;20041;-64
2022/02/04 08:14:30;;;;;;;11.60;4.95;;;;;;;;;;6283714;28;20144;-63
2022/02/04 08:17:59;;;;;;;8.27;3.83;;;;;;;;;;6284542;28;20060;-62
2022/02/04 08:21:36;;;;;;;11.98;5.00;;;;;;;;;;6287604;28;20045;-63
2022/02/04 08:24:51;;;;;;;14.95;4.93;;;;;;;;;;6284580;28;20048;-62
2022/02/04 08:38:38;;;;;;;10.35;4.55;;;;;;;;;;6289815;27;20645;-63
2022/02/04 08:52:05;;;;;;;14.23;6.25;;;;;;;;;;6266460;28;20049;-63
2022/02/04 08:55:12;;;;;;;12.00;5.47;;;;;;;;;;6255547;28;20041;-62
2022/02/04 08:58:25;;;;;;;20.58;6.85;;;;;;;;;;6258448;28;20041;-64
2022/02/04 09:01:32;;;;;;;14.55;6.45;;;;;;;;;;6245218;28;21329;-63
2022/02/04 09:04:40;;;;;;;16.73;6.60;;;;;;;;;;6249681;28;20042;-63
2022/02/04 09:07:51;;;;;;;13.30;6.32;;;;;;;;;;6250040;28;20049;-62
2022/02/04 09:11:00;;;;;;;13.52;6.43;;;;;;;;;;6251465;28;20058;-63
2022/02/04 09:17:54;;;;;;;11.30;5.90;;;;;;;;;;6234115;28;20133;-64
2022/02/04 09:24:12;;;;;;;16.20;7.40;;;;;;;;;;6245902;28;20061;-62
2022/02/04 09:27:15;;;;;;;15.00;7.35;;;;;;;;;;6246406;28;20041;-65
2022/02/04 09:30:18;;;;;;;13.33;6.07;;;;;;;;;;6248596;28;20405;-66
2022/02/04 09:33:20;;;;;;;16.17;6.20;;;;;;;;;;6249262;28;20447;-66
2022/02/04 09:36:22;;;;;;;14.95;6.75;;;;;;;;;;6249218;28;20092;-65
2022/02/04 09:39:24;;;;;;;12.15;6.30;;;;;;;;;;6250281;28;20049;-66
2022/02/04 09:42:27;;;;;;;10.27;6.50;;;;;;;;;;6247973;28;20053;-65
2022/02/04 09:45:30;;;;;;;13.93;6.90;;;;;;;;;;6247806;28;20177;-66
2022/02/04 09:48:32;;;;;;;15.60;6.63;;;;;;;;;;6236449;28;20050;-66
2022/02/04 09:51:53;;;;;;;13.25;6.68;;;;;;;;;;6230483;28;20088;-65
2022/02/04 10:08:32;;;;;;;17.40;7.07;;;;;;;;;;6230843;28;20088;-64
2022/02/04 10:15:10;;;;;;;10.90;6.82;;;;;;;;;;6231359;28;20053;-64
2022/02/04 10:18:25;;;;;;;11.88;6.93;;;;;;;;;;6235326;28;20048;-64
2022/02/04 10:21:29;;;;;;;15.05;7.68;;;;;;;;;;6254203;28;20052;-65
2022/02/04 10:24:32;;;;;;;15.15;7.53;;;;;;;;;;6238179;28;20045;-64
2022/02/04 10:27:35;;;;;;;12.37;7.17;;;;;;;;;;6232559;28;20054;-64
2022/02/04 10:30:38;;;;;;;15.60;7.45;;;;;;;;;;6232918;28;20049;-64
2022/02/04 10:33:59;;;;;;;19.05;7.97;;;;;;;;;;6232178;28;20426;-64
2022/02/04 10:37:03;;;;;;;18.38;7.40;;;;;;;;;;6230412;28;20084;-64
2022/02/04 10:40:24;;;;;;;22.02;7.30;;;;;;;;;;6234113;28;20187;-64
2022/02/04 10:43:46;;;;;;;16.00;7.82;;;;;;;;;;6232836;28;20045;-65
2022/02/04 10:46:57;;;;;;;14.45;6.30;;;;;;;;;;6232933;28;20058;-64
2022/02/04 10:50:07;;;;;;;14.23;6.60;;;;;;;;;;6240830;28;20052;-65
2022/02/04 10:53:29;;;;;;;10.85;5.53;;;;;;;;;;6258720;28;20045;-65
2022/02/04 10:56:54;;;;;;;11.98;5.57;;;;;;;;;;6256066;28;20045;-64
2022/02/04 11:00:10;;;;;;;11.15;6.28;;;;;;;;;;6230144;28;20383;-65
2022/02/04 11:03:13;;;;;;;12.43;6.15;;;;;;;;;;6235971;28;20377;-64
2022/02/04 11:06:24;;;;;;;14.13;6.10;;;;;;;;;;6246411;28;20060;-64
2022/02/04 11:09:41;;;;;;;14.40;6.72;;;;;;;;;;6234089;28;20254;-65
2022/02/04 11:36:40;;;;;;;12.77;6.93;;;;;;;;;;6241704;28;20122;-64
2022/02/04 11:52:53;;;;;;;15.77;9.20;;;;;;;;;;6255668;28;20053;-66
2022/02/04 11:55:59;;;;;;;13.93;8.48;;;;;;;;;;6251679;28;20072;-66
2022/02/04 11:59:02;;;;;;;20.17;9.90;;;;;;;;;;6255869;28;20045;-67
2022/02/04 12:02:30;;;;;;;17.08;10.65;;;;;;;;;;6251687;28;20485;-63
2022/02/04 12:05:33;;;;;;;15.60;10.68;;;;;;;;;;6248366;28;20528;-65
2022/02/04 12:08:36;;;;;;;22.02;12.80;;;;;;;;;;6253854;28;20187;-65
2022/02/04 12:11:40;;;;;;;25.52;14.23;;;;;;;;;;6249120;28;20064;-64
2022/02/04 12:14:42;;;;;;;24.40;15.73;;;;;;;;;;6248544;28;20203;-65
2022/02/04 12:17:43;;;;;;;23.25;16.05;;;;;;;;;;6250269;28;20361;-64
2022/02/04 12:20:57;;;;;;;22.65;15.45;;;;;;;;;;6254004;28;20111;-64
2022/02/04 12:24:00;;;;;;;21.70;16.17;;;;;;;;;;6258209;28;20269;-64
2022/02/04 12:27:31;;;;;;;24.15;16.90;;;;;;;;;;6250062;28;20552;-65
2022/02/04 12:30:34;;;;;;;24.50;15.70;;;;;;;;;;6250740;28;20120;-64
2022/02/04 12:33:43;;;;;;;28.23;19.02;;;;;;;;;;6247915;28;20132;-64
2022/02/04 12:36:46;;;;;;;25.70;16.80;;;;;;;;;;6252196;28;20510;-64
2022/02/04 12:39:49;;;;;;;23.15;16.95;;;;;;;;;;6247278;28;20073;-65
2022/02/04 12:42:51;;;;;;;28.20;17.02;;;;;;;;;;6248978;28;20089;-66
2022/02/04 12:45:52;;;;;;;27.35;17.20;;;;;;;;;;6251222;28;20578;-65
2022/02/04 12:49:01;;;;;;;22.50;16.33;;;;;;;;;;6247625;28;20053;-64
2022/02/04 12:52:13;;;;;;;26.08;16.88;;;;;;;;;;6255602;28;20087;-65
2022/02/04 12:55:24;;;;;;;26.80;17.45;;;;;;;;;;6245932;28;20053;-64
2022/02/04 12:58:55;;;;;;;24.90;17.00;;;;;;;;;;6250418;28;20053;-65
2022/02/04 13:02:03;;;;;;;23.65;16.45;;;;;;;;;;6249667;28;20053;-65
2022/02/04 13:08:38;;;;;;;25.75;17.05;;;;;;;;;;6249625;28;20053;-64
2022/02/04 13:11:41;;;;;;;21.83;15.50;;;;;;;;;;6250961;28;20103;-62
2022/02/04 13:14:43;;;;;;;22.90;16.17;;;;;;;;;;6250779;28;20076;-63
2022/02/04 13:17:45;;;;;;;24.75;16.50;;;;;;;;;;6250202;28;20100;-64
2022/02/04 13:20:48;;;;;;;21.33;16.05;;;;;;;;;;6252001;28;20521;-64
2022/02/04 13:23:51;;;;;;;20.60;16.07;;;;;;;;;;6254280;28;20095;-64
2022/02/04 13:26:54;;;;;;;23.85;16.73;;;;;;;;;;6253662;28;20103;-64
2022/02/04 13:29:56;;;;;;;24.48;17.42;;;;;;;;;;6259163;28;20051;-64
2022/02/04 13:32:58;;;;;;;22.13;16.83;;;;;;;;;;6261225;28;20074;-62
2022/02/04 13:36:10;;;;;;;24.75;16.67;;;;;;;;;;6252524;28;20196;-63
2022/02/04 13:39:20;;;;;;;23.00;16.65;;;;;;;;;;6255011;28;20428;-63
2022/02/04 13:42:36;;;;;;;26.20;17.30;;;;;;;;;;6263629;28;20068;-63
2022/02/04 13:45:43;;;;;;;25.13;17.40;;;;;;;;;;6256951;28;20402;-62
2022/02/04 13:52:19;;;;;;;30.00;18.23;;;;;;;;;;6243697;28;20102;-63
2022/02/04 13:55:29;;;;;;;25.75;17.45;;;;;;;;;;6253129;28;20081;-62
2022/02/04 13:58:39;;;;;;;26.23;18.17;;;;;;;;;;6255525;28;20142;-63
2022/02/04 14:01:46;;;;;;;23.15;17.52;;;;;;;;;;6258444;28;20170;-63
2022/02/04 14:04:56;;;;;;;23.50;16.60;;;;;;;;;;6251997;28;20056;-63
2022/02/04 14:08:08;;;;;;;26.40;17.77;;;;;;;;;;6253954;28;20045;-62
2022/02/04 14:11:10;;;;;;;28.05;16.83;;;;;;;;;;6257606;28;20570;-62
2022/02/04 14:14:21;;;;;;;23.92;16.92;;;;;;;;;;6253831;28;20053;-63
2022/02/04 14:17:27;;;;;;;28.48;17.33;;;;;;;;;;6258001;28;20114;-63
2022/02/04 14:20:28;;;;;;;22.27;17.60;;;;;;;;;;6259180;28;20040;-62
2022/02/04 14:23:30;;;;;;;24.05;17.48;;;;;;;;;;6254778;28;20076;-63
2022/02/04 14:26:38;;;;;;;25.13;18.10;;;;;;;;;;6258660;28;20335;-62
2022/02/04 14:29:49;;;;;;;25.10;18.08;;;;;;;;;;6254788;28;20049;-64
2022/02/04 14:32:56;;;;;;;25.33;18.25;;;;;;;;;;6259315;28;20061;-64
2022/02/04 14:36:04;;;;;;;26.23;17.92;;;;;;;;;;6257927;28;20076;-64
2022/02/04 14:49:25;;;;;;;25.10;17.13;;;;;;;;;;6251674;28;20275;-64
2022/02/04 14:52:38;;;;;;;29.17;18.40;;;;;;;;;;6262128;28;20060;-63
2022/02/04 14:59:29;;;;;;;30.65;19.77;;;;;;;;;;6256124;28;20057;-64
2022/02/04 15:02:40;;;;;;;32.28;20.05;;;;;;;;;;6254410;28;20174;-63
2022/02/04 15:05:44;;;;;;;30.63;19.48;;;;;;;;;;6256951;28;20056;-64
2022/02/04 15:08:48;;;;;;;33.70;20.23;;;;;;;;;;6256271;28;20086;-63
2022/02/04 15:11:50;;;;;;;31.55;20.65;;;;;;;;;;6257239;28;20091;-63
2022/02/04 15:14:52;;;;;;;29.83;19.70;;;;;;;;;;6254736;28;20098;-63
2022/02/04 15:17:55;;;;;;;33.65;19.52;;;;;;;;;;6254210;28;20444;-63
2022/02/04 15:21:00;;;;;;;34.83;19.63;;;;;;;;;;6254176;28;20053;-64
2022/02/04 15:24:04;;;;;;;32.72;19.52;;;;;;;;;;6255401;28;20068;-64
2022/02/04 15:27:06;;;;;;;32.00;20.42;;;;;;;;;;6254846;28;20572;-63
2022/02/04 15:30:10;;;;;;;28.23;18.90;;;;;;;;;;6259537;28;20549;-64
2022/02/04 15:33:13;;;;;;;31.65;21.02;;;;;;;;;;6257581;28;20063;-64
2022/02/04 15:36:22;;;;;;;34.53;20.50;;;;;;;;;;6258015;28;20063;-64
2022/02/04 15:39:27;;;;;;;30.38;20.77;;;;;;;;;;6255830;28;20118;-64
2022/02/04 15:42:34;;;;;;;35.28;21.83;;;;;;;;;;6257754;28;20053;-63
2022/02/04 15:46:05;;;;;;;31.77;21.42;;;;;;;;;;6249735;28;20054;-64
2022/02/04 15:49:18;;;;;;;36.63;23.38;;;;;;;;;;6250606;28;20157;-64
2022/02/04 15:52:41;;;;;;;38.22;24.20;;;;;;;;;;6256136;28;20064;-63
2022/02/04 15:59:22;;;;;;;41.10;25.27;;;;;;;;;;6254822;28;20050;-64
2022/02/04 16:02:35;;;;;;;37.42;24.08;;;;;;;;;;6256509;28;20410;-63
2022/02/04 16:05:42;;;;;;;40.85;24.70;;;;;;;;;;6257938;28;20084;-64
2022/02/04 16:08:44;;;;;;;44.58;27.08;;;;;;;;;;6258430;28;20434;-63
2022/02/04 16:11:59;;;;;;;48.13;29.05;;;;;;;;;;6251492;28;20053;-64
2022/02/04 16:15:07;;;;;;;50.40;28.92;;;;;;;;;;6251607;28;20072;-64
2022/02/04 16:18:16;;;;;;;48.90;30.70;;;;;;;;;;6252405;28;20068;-63
2022/02/04 16:21:25;;;;;;;53.33;32.40;;;;;;;;;;6249526;28;20101;-63
2022/02/04 16:25:02;;;;;;;52.13;32.22;;;;;;;;;;6253921;28;20089;-64
2022/02/04 16:31:25;;;;;;;53.03;33.17;;;;;;;;;;6261868;28;20041;-63
2022/02/04 16:34:29;;;;;;;58.22;35.35;;;;;;;;;;6253175;28;20079;-63
2022/02/04 16:37:34;;;;;;;56.13;34.87;;;;;;;;;;6255501;28;20045;-64
2022/02/04 16:40:42;;;;;;;58.42;35.25;;;;;;;;;;6229257;28;20451;-63
2022/02/04 16:43:43;;;;;;;56.30;35.00;;;;;;;;;;6258137;28;20045;-64
2022/02/04 16:46:45;;;;;;;66.82;36.55;;;;;;;;;;6259721;28;20132;-63
2022/02/04 16:49:47;;;;;;;61.75;35.08;;;;;;;;;;6261583;28;20103;-64
2022/02/04 16:52:50;;;;;;;64.78;37.47;;;;;;;;;;6262131;28;20355;-64
2022/02/04 16:55:52;;;;;;;63.15;37.13;;;;;;;;;;6252846;28;20045;-64
2022/02/04 16:58:53;;;;;;;62.88;37.20;;;;;;;;;;6254502;28;20080;-64
2022/02/04 17:01:56;;;;;;;69.28;37.50;;;;;;;;;;6258076;28;20409;-64
2022/02/04 17:04:58;;;;;;;64.05;37.53;;;;;;;;;;6254743;28;20041;-64
2022/02/04 17:08:07;;;;;;;69.22;40.22;;;;;;;;;;6258657;28;20115;-63
2022/02/04 17:11:11;;;;;;;75.53;41.85;;;;;;;;;;6258147;28;20502;-64
2022/02/04 17:14:13;;;;;;;79.72;42.85;;;;;;;;;;6256449;28;20176;-63
2022/02/04 17:17:16;;;;;;;76.88;43.00;;;;;;;;;;6253231;28;20192;-63
2022/02/04 17:20:18;;;;;;;83.50;43.80;;;;;;;;;;6257994;28;20049;-65
2022/02/04 17:23:28;;;;;;;83.35;44.97;;;;;;;;;;6254588;28;20174;-63
2022/02/04 17:26:30;;;;;;;78.15;44.13;;;;;;;;;;6253766;28;20499;-63
2022/02/04 17:29:32;;;;;;;76.25;41.65;;;;;;;;;;6263521;28;20136;-64
2022/02/04 17:32:34;;;;;;;69.22;41.90;;;;;;;;;;6258338;28;20083;-64
2022/02/04 17:35:35;;;;;;;78.05;43.00;;;;;;;;;;6259439;28;20567;-63
2022/02/04 17:38:39;;;;;;;79.35;42.50;;;;;;;;;;6263446;28;20199;-63
2022/02/04 17:41:40;;;;;;;68.88;39.72;;;;;;;;;;6253952;28;20103;-65
2022/02/04 17:44:42;;;;;;;67.70;40.53;;;;;;;;;;6257386;28;20095;-64
2022/02/04 17:47:51;;;;;;;71.60;39.55;;;;;;;;;;6254602;28;20085;-64
2022/02/04 17:51:04;;;;;;;67.60;38.13;;;;;;;;;;6255483;28;20179;-63
2022/02/04 17:54:10;;;;;;;67.85;38.60;;;;;;;;;;6258559;28;20041;-64
2022/02/04 17:57:16;;;;;;;68.28;39.30;;;;;;;;;;6254008;28;20057;-64
2022/02/04 18:00:52;;;;;;;74.05;39.75;;;;;;;;;;6262339;28;20041;-64
2022/02/04 18:07:13;;;;;;;66.75;39.63;;;;;;;;;;6253570;28;20493;-65
2022/02/04 18:10:17;;;;;;;64.07;40.03;;;;;;;;;;6250772;28;20255;-63
2022/02/04 18:13:18;;;;;;;65.90;39.63;;;;;;;;;;6254028;28;20057;-64
2022/02/04 18:16:20;;;;;;;65.40;37.88;;;;;;;;;;6250390;28;20076;-64
2022/02/04 18:19:22;;;;;;;67.32;40.42;;;;;;;;;;6255341;28;20083;-65
2022/02/04 18:22:23;;;;;;;67.70;40.30;;;;;;;;;;6263574;28;20107;-64
2022/02/04 18:25:26;;;;;;;71.50;41.20;;;;;;;;;;6255448;28;20477;-65
2022/02/04 18:28:29;;;;;;;67.05;40.55;;;;;;;;;;6251468;28;20180;-64
2022/02/04 18:31:32;;;;;;;73.53;40.03;;;;;;;;;;6256033;28;20103;-65
2022/02/04 18:34:33;;;;;;;74.03;41.28;;;;;;;;;;6253260;28;20067;-64
2022/02/04 18:37:39;;;;;;;68.20;38.30;;;;;;;;;;6250264;28;20097;-64
2022/02/04 18:44:04;;;;;;;64.22;38.20;;;;;;;;;;6254194;28;20110;-65
2022/02/04 18:47:12;;;;;;;62.53;38.17;;;;;;;;;;6255063;28;20500;-65
2022/02/04 18:50:26;;;;;;;71.15;39.83;;;;;;;;;;6256921;28;20113;-64
2022/02/04 18:53:36;;;;;;;71.32;40.88;;;;;;;;;;6256950;28;20139;-64
2022/02/04 18:57:06;;;;;;;74.07;40.55;;;;;;;;;;6250304;28;20042;-64
2022/02/04 19:00:13;;;;;;;69.13;40.38;;;;;;;;;;6254381;28;20045;-64
2022/02/04 19:03:20;;;;;;;67.82;38.80;;;;;;;;;;6250973;28;20059;-64
2022/02/04 19:06:26;;;;;;;71.15;40.63;;;;;;;;;;6254371;28;20174;-63
2022/02/04 19:09:28;;;;;;;67.32;39.33;;;;;;;;;;6260086;28;20065;-65
2022/02/04 19:12:37;;;;;;;60.80;38.30;;;;;;;;;;6257811;28;20523;-64
2022/02/04 19:19:08;;;;;;;63.97;38.17;;;;;;;;;;6254148;28;20091;-65
2022/02/04 19:22:19;;;;;;;62.67;37.08;;;;;;;;;;6251437;28;20064;-63
2022/02/04 19:25:25;;;;;;;62.13;36.75;;;;;;;;;;6252451;28;20391;-65
2022/02/04 19:28:29;;;;;;;65.95;38.47;;;;;;;;;;6263934;28;20053;-65
2022/02/04 19:31:33;;;;;;;67.00;39.03;;;;;;;;;;6255357;28;20060;-65
2022/02/04 19:34:35;;;;;;;71.72;39.40;;;;;;;;;;6259325;28;20049;-65
2022/02/04 19:37:37;;;;;;;65.40;37.92;;;;;;;;;;6253445;28;20179;-65
2022/02/04 19:40:41;;;;;;;61.38;38.72;;;;;;;;;;6252273;28;20520;-64
2022/02/04 19:43:46;;;;;;;65.43;38.15;;;;;;;;;;6253338;28;20073;-65
2022/02/04 19:46:53;;;;;;;60.75;35.97;;;;;;;;;;6255704;28;20048;-64
2022/02/04 19:50:09;;;;;;;59.53;37.47;;;;;;;;;;6256513;28;20057;-67
2022/02/04 20:17:15;;;;;;;60.78;36.70;;;;;;;;;;6196049;28;20519;-67
2022/02/04 20:23:46;;;;;;;70.25;40.20;;;;;;;;;;6256402;28;20044;-65
2022/02/04 20:26:47;;;;;;;67.50;40.30;;;;;;;;;;6257240;28;20098;-66
2022/02/04 20:29:49;;;;;;;62.05;37.58;;;;;;;;;;6260547;28;20081;-65
2022/02/04 20:32:52;;;;;;;60.28;37.25;;;;;;;;;;6252045;28;20045;-65
2022/02/04 20:35:54;;;;;;;64.38;37.78;;;;;;;;;;6250360;28;20154;-65
2022/02/04 20:38:55;;;;;;;62.55;36.22;;;;;;;;;;6255592;28;20057;-66
2022/02/04 20:41:57;;;;;;;63.28;39.47;;;;;;;;;;6257364;28;20042;-65
2022/02/04 20:44:58;;;;;;;70.22;42.33;;;;;;;;;;6258824;28;20083;-65
2022/02/04 20:48:02;;;;;;;75.22;43.72;;;;;;;;;;6258955;28;20060;-65
2022/02/04 20:51:05;;;;;;;76.63;43.97;;;;;;;;;;6258786;28;20558;-65
2022/02/04 20:54:07;;;;;;;82.63;43.35;;;;;;;;;;6250136;28;20501;-65
2022/02/04 20:57:09;;;;;;;73.47;42.28;;;;;;;;;;6253098;28;20095;-65
2022/02/04 21:00:22;;;;;;;77.95;43.15;;;;;;;;;;6247194;28;20049;-65
2022/02/04 21:03:26;;;;;;;76.25;43.42;;;;;;;;;;6251013;28;20044;-65
2022/02/04 21:06:33;;;;;;;76.63;43.80;;;;;;;;;;6249005;28;20517;-65
2022/02/04 21:16:11;;;;;;;80.22;44.35;;;;;;;;;;6248024;28;20513;-66
2022/02/04 21:19:14;;;;;;;80.30;44.25;;;;;;;;;;6255865;28;20516;-65
2022/02/04 21:22:16;;;;;;;83.65;46.25;;;;;;;;;;6261261;28;20041;-65
2022/02/04 21:25:18;;;;;;;81.85;43.85;;;;;;;;;;6258092;28;20122;-65
2022/02/04 21:28:23;;;;;;;80.93;46.05;;;;;;;;;;6255863;28;20045;-65
2022/02/04 21:31:25;;;;;;;83.80;45.90;;;;;;;;;;6253122;28;20061;-65
2022/02/04 21:37:47;;;;;;;92.20;46.17;;;;;;;;;;6253686;28;20140;-65
2022/02/04 21:40:48;;;;;;;82.10;46.78;;;;;;;;;;6255589;28;20052;-65
2022/02/04 21:43:52;;;;;;;83.32;45.10;;;;;;;;;;6259189;28;20057;-65
2022/02/04 21:46:54;;;;;;;81.43;46.03;;;;;;;;;;6253662;28;20249;-65
2022/02/04 21:50:01;;;;;;;80.75;46.38;;;;;;;;;;6258895;28;20163;-65
2022/02/04 21:53:03;;;;;;;84.22;46.45;;;;;;;;;;6261208;28;20041;-65
2022/02/04 21:56:07;;;;;;;86.93;46.88;;;;;;;;;;6261275;28;20058;-65
2022/02/04 21:59:09;;;;;;;80.05;45.03;;;;;;;;;;6261773;28;20101;-65
2022/02/04 22:02:11;;;;;;;79.07;46.30;;;;;;;;;;6261804;28;20057;-65
2022/02/04 22:05:14;;;;;;;78.20;47.13;;;;;;;;;;6255932;28;20442;-65
2022/02/04 22:08:30;;;;;;;86.35;47.20;;;;;;;;;;6253683;28;20130;-65
2022/02/04 22:11:45;;;;;;;83.07;45.90;;;;;;;;;;6259399;28;20056;-65
2022/02/04 22:15:05;;;;;;;89.80;48.10;;;;;;;;;;6256697;28;20128;-65
2022/02/04 22:24:49;;;;;;;85.93;46.80;;;;;;;;;;6257674;28;20049;-65
2022/02/04 22:27:50;;;;;;;89.85;47.08;;;;;;;;;;6253217;28;20134;-65
2022/02/04 22:30:54;;;;;;;84.38;46.92;;;;;;;;;;6267559;28;20123;-65
2022/02/04 22:34:03;;;;;;;89.60;47.77;;;;;;;;;;6261425;28;20095;-65
2022/02/04 22:37:43;;;;;;;80.32;44.83;;;;;;;;;;6255760;28;20056;-66
2022/02/04 22:47:44;;;;;;;90.93;49.83;;;;;;;;;;6257627;28;20041;-64
2022/02/04 22:50:51;;;;;;;95.43;50.90;;;;;;;;;;6255582;28;20493;-64
2022/02/04 22:54:08;;;;;;;94.50;51.45;;;;;;;;;;6260974;28;20064;-64
2022/02/04 22:57:15;;;;;;;94.13;51.38;;;;;;;;;;6259454;28;20422;-64
2022/02/04 23:00:34;;;;;;;101.65;52.33;;;;;;;;;;6252854;28;20053;-64
2022/02/04 23:03:41;;;;;;;97.20;52.35;;;;;;;;;;6254088;28;20179;-64
2022/02/04 23:06:43;;;;;;;92.22;51.28;;;;;;;;;;6254576;28;20179;-64
2022/02/04 23:09:53;;;;;;;102.97;60.22;;;;;;;;;;6250707;28;20600;-64
2022/02/04 23:12:56;;;;;;;126.65;78.63;;;;;;;;;;6253708;28;20061;-64
2022/02/04 23:16:04;;;;;;;101.75;55.28;;;;;;;;;;6249051;28;20053;-64
2022/02/04 23:19:10;;;;;;;98.35;49.47;;;;;;;;;;6257424;28;20508;-64
2022/02/04 23:22:16;;;;;;;92.90;48.90;;;;;;;;;;6247933;28;20050;-65
2022/02/04 23:25:35;;;;;;;83.85;48.55;;;;;;;;;;6253277;28;20049;-64